sensor_id;sensor_type;location;lat;lon;timestamp;temperature;humidity
254;DHT22;590;48.772;8.846;2023-12-20T00:01:23;5.80;99.90
254;DHT22;590;48.772;8.846;2023-12-20T00:03:51;5.80;99.90
254;DHT22;590;48.772;8.846;2023-12-20T00:06:19;5.80;99.90
254;DHT22;590;48.772;8.846;2023-12-20T00:08:47;5.80;99.90
254;DHT22;590;48.772;8.846;2023-12-20T00:11:17;5.90;99.90
254;DHT22;590;48.772;8.846;2023-12-20T00:13:45;5.80;99.90
254;DHT22;590;48.772;8.846;2023-12-20T00:16:17;5.80;99.90
254;DHT22;590;48.772;8.846;2023-12-20T00:18:45;5.80;99.90
254;DHT22;590;48.772;8.846;2023-12-20T00:21:13;5.80;99.90
254;DHT22;590;48.772;8.846;2023-12-20T00:23:41;5.80;99.90
254;DHT22;590;48.772;8.846;2023-12-20T00:26:09;5.80;99.90
254;DHT22;590;48.772;8.846;2023-12-20T00:28:39;5.80;99.90
254;DHT22;590;48.772;8.846;2023-12-20T00:31:07;5.70;99.90
254;DHT22;590;48.772;8.846;2023-12-20T00:33:35;5.70;99.90
254;DHT22;590;48.772;8.846;2023-12-20T00:36:04;5.70;99.90
254;DHT22;590;48.772;8.846;2023-12-20T00:38:32;5.70;99.90
254;DHT22;590;48.772;8.846;2023-12-20T00:41:00;5.70;99.90
254;DHT22;590;48.772;8.846;2023-12-20T00:43:29;5.70;99.90
254;DHT22;590;48.772;8.846;2023-12-20T00:45:58;5.70;99.90
254;DHT22;590;48.772;8.846;2023-12-20T00:48:27;5.70;99.90
254;DHT22;590;48.772;8.846;2023-12-20T00:50:57;5.70;99.90
254;DHT22;590;48.772;8.846;2023-12-20T00:53:25;5.80;99.90
254;DHT22;590;48.772;8.846;2023-12-20T00:55:53;5.70;99.90
254;DHT22;590;48.772;8.846;2023-12-20T00:58:21;5.70;99.90
254;DHT22;590;48.772;8.846;2023-12-20T01:00:49;5.70;99.90
254;DHT22;590;48.772;8.846;2023-12-20T01:03:19;5.70;99.90
254;DHT22;590;48.772;8.846;2023-12-20T01:05:47;5.70;99.90
254;DHT22;590;48.772;8.846;2023-12-20T01:08:15;5.70;99.90
254;DHT22;590;48.772;8.846;2023-12-20T01:10:43;5.60;99.90
254;DHT22;590;48.772;8.846;2023-12-20T01:13:11;5.60;99.90
254;DHT22;590;48.772;8.846;2023-12-20T01:15:39;5.60;99.90
254;DHT22;590;48.772;8.846;2023-12-20T01:18:07;5.70;99.90
254;DHT22;590;48.772;8.846;2023-12-20T01:20:37;5.70;99.90
254;DHT22;590;48.772;8.846;2023-12-20T01:23:05;5.70;99.90
254;DHT22;590;48.772;8.846;2023-12-20T01:25:33;5.80;99.90
254;DHT22;590;48.772;8.846;2023-12-20T01:28:01;5.90;99.90
254;DHT22;590;48.772;8.846;2023-12-20T01:30:30;6.00;99.90
254;DHT22;590;48.772;8.846;2023-12-20T01:32:59;6.10;99.90
254;DHT22;590;48.772;8.846;2023-12-20T01:35:27;6.10;99.90
254;DHT22;590;48.772;8.846;2023-12-20T01:37:57;6.20;99.90
254;DHT22;590;48.772;8.846;2023-12-20T01:40:24;6.30;99.90
254;DHT22;590;48.772;8.846;2023-12-20T01:42:58;6.30;99.90
254;DHT22;590;48.772;8.846;2023-12-20T01:45:27;6.30;99.90
254;DHT22;590;48.772;8.846;2023-12-20T01:47:57;6.40;99.90
254;DHT22;590;48.772;8.846;2023-12-20T01:50:27;6.40;99.90
254;DHT22;590;48.772;8.846;2023-12-20T01:52:57;6.40;99.90
254;DHT22;590;48.772;8.846;2023-12-20T01:55:27;6.40;99.90
254;DHT22;590;48.772;8.846;2023-12-20T01:57:58;6.40;99.90
254;DHT22;590;48.772;8.846;2023-12-20T02:00:26;6.40;99.90
254;DHT22;590;48.772;8.846;2023-12-20T02:02:55;6.40;99.90
254;DHT22;590;48.772;8.846;2023-12-20T02:05:25;6.40;99.90
254;DHT22;590;48.772;8.846;2023-12-20T02:07:52;6.40;99.90
254;DHT22;590;48.772;8.846;2023-12-20T02:10:22;6.40;99.90
254;DHT22;590;48.772;8.846;2023-12-20T02:12:50;6.40;99.90
254;DHT22;590;48.772;8.846;2023-12-20T02:15:18;6.40;99.90
254;DHT22;590;48.772;8.846;2023-12-20T02:17:46;6.40;99.90
254;DHT22;590;48.772;8.846;2023-12-20T02:20:15;6.40;99.90
254;DHT22;590;48.772;8.846;2023-12-20T02:22:45;6.40;99.90
254;DHT22;590;48.772;8.846;2023-12-20T02:25:13;6.40;99.90
254;DHT22;590;48.772;8.846;2023-12-20T02:27:41;6.30;99.90
254;DHT22;590;48.772;8.846;2023-12-20T02:30:10;6.30;99.90
254;DHT22;590;48.772;8.846;2023-12-20T02:32:39;6.30;99.90
254;DHT22;590;48.772;8.846;2023-12-20T02:35:07;6.30;99.90
254;DHT22;590;48.772;8.846;2023-12-20T02:37:35;6.30;99.90
254;DHT22;590;48.772;8.846;2023-12-20T02:40:06;6.20;99.90
254;DHT22;590;48.772;8.846;2023-12-20T02:42:35;6.20;99.90
254;DHT22;590;48.772;8.846;2023-12-20T02:45:03;6.20;99.90
254;DHT22;590;48.772;8.846;2023-12-20T02:47:32;6.10;99.90
254;DHT22;590;48.772;8.846;2023-12-20T02:50:00;6.10;99.90
254;DHT22;590;48.772;8.846;2023-12-20T02:52:29;6.10;99.90
254;DHT22;590;48.772;8.846;2023-12-20T02:54:57;6.10;99.90
254;DHT22;590;48.772;8.846;2023-12-20T02:57:26;6.10;99.90
254;DHT22;590;48.772;8.846;2023-12-20T02:59:54;6.10;99.90
254;DHT22;590;48.772;8.846;2023-12-20T03:02:22;6.00;99.90
254;DHT22;590;48.772;8.846;2023-12-20T03:04:50;6.00;99.90
254;DHT22;590;48.772;8.846;2023-12-20T03:07:18;6.00;99.90
254;DHT22;590;48.772;8.846;2023-12-20T03:09:46;6.00;99.90
254;DHT22;590;48.772;8.846;2023-12-20T03:12:36;5.90;99.90
254;DHT22;590;48.772;8.846;2023-12-20T03:15:04;5.90;99.90
254;DHT22;590;48.772;8.846;2023-12-20T03:17:32;5.80;99.90
254;DHT22;590;48.772;8.846;2023-12-20T03:20:00;5.80;99.90
254;DHT22;590;48.772;8.846;2023-12-20T03:22:28;5.80;99.90
254;DHT22;590;48.772;8.846;2023-12-20T03:24:56;5.80;99.90
254;DHT22;590;48.772;8.846;2023-12-20T03:27:24;5.80;99.90
254;DHT22;590;48.772;8.846;2023-12-20T03:29:54;5.80;99.90
254;DHT22;590;48.772;8.846;2023-12-20T03:32:22;5.80;99.90
254;DHT22;590;48.772;8.846;2023-12-20T03:34:50;5.80;99.90
254;DHT22;590;48.772;8.846;2023-12-20T03:37:18;5.70;99.90
254;DHT22;590;48.772;8.846;2023-12-20T03:39:46;5.80;99.90
254;DHT22;590;48.772;8.846;2023-12-20T03:42:14;5.70;99.90
254;DHT22;590;48.772;8.846;2023-12-20T03:44:42;5.70;99.90
254;DHT22;590;48.772;8.846;2023-12-20T03:47:12;5.70;99.90
254;DHT22;590;48.772;8.846;2023-12-20T03:49:40;5.70;99.90
254;DHT22;590;48.772;8.846;2023-12-20T03:52:08;5.70;99.90
254;DHT22;590;48.772;8.846;2023-12-20T03:54:36;5.70;99.90
254;DHT22;590;48.772;8.846;2023-12-20T03:57:04;5.70;99.90
254;DHT22;590;48.772;8.846;2023-12-20T03:59:35;5.70;99.90
254;DHT22;590;48.772;8.846;2023-12-20T04:02:03;5.70;99.90
254;DHT22;590;48.772;8.846;2023-12-20T04:04:33;5.60;99.90
254;DHT22;590;48.772;8.846;2023-12-20T04:07:01;5.60;99.90
254;DHT22;590;48.772;8.846;2023-12-20T04:09:29;5.60;99.90
254;DHT22;590;48.772;8.846;2023-12-20T04:11:57;5.60;99.90
254;DHT22;590;48.772;8.846;2023-12-20T04:14:25;5.60;99.90
254;DHT22;590;48.772;8.846;2023-12-20T04:16:54;5.60;99.90
254;DHT22;590;48.772;8.846;2023-12-20T04:19:22;5.50;99.90
254;DHT22;590;48.772;8.846;2023-12-20T04:21:51;5.50;99.90
254;DHT22;590;48.772;8.846;2023-12-20T04:24:19;5.50;99.90
254;DHT22;590;48.772;8.846;2023-12-20T04:26:47;5.50;99.90
254;DHT22;590;48.772;8.846;2023-12-20T04:29:15;5.50;99.90
254;DHT22;590;48.772;8.846;2023-12-20T04:31:43;5.50;99.90
254;DHT22;590;48.772;8.846;2023-12-20T04:34:11;5.50;99.90
254;DHT22;590;48.772;8.846;2023-12-20T04:36:39;5.50;99.90
254;DHT22;590;48.772;8.846;2023-12-20T04:39:09;5.50;99.90
254;DHT22;590;48.772;8.846;2023-12-20T04:41:37;5.50;99.90
254;DHT22;590;48.772;8.846;2023-12-20T04:44:06;5.50;99.90
254;DHT22;590;48.772;8.846;2023-12-20T04:46:34;5.50;99.90
254;DHT22;590;48.772;8.846;2023-12-20T04:49:02;5.60;99.90
254;DHT22;590;48.772;8.846;2023-12-20T04:51:33;5.50;99.90
254;DHT22;590;48.772;8.846;2023-12-20T04:54:01;5.50;99.90
254;DHT22;590;48.772;8.846;2023-12-20T04:56:30;5.50;99.90
254;DHT22;590;48.772;8.846;2023-12-20T04:58:58;5.50;99.90
254;DHT22;590;48.772;8.846;2023-12-20T05:01:26;5.50;99.90
254;DHT22;590;48.772;8.846;2023-12-20T05:03:54;5.50;99.90
254;DHT22;590;48.772;8.846;2023-12-20T05:06:22;5.50;99.90
254;DHT22;590;48.772;8.846;2023-12-20T05:08:51;5.50;99.90
254;DHT22;590;48.772;8.846;2023-12-20T05:11:19;5.50;99.90
254;DHT22;590;48.772;8.846;2023-12-20T05:13:48;5.60;99.90
254;DHT22;590;48.772;8.846;2023-12-20T05:16:17;5.60;99.90
254;DHT22;590;48.772;8.846;2023-12-20T05:18:49;5.60;99.90
254;DHT22;590;48.772;8.846;2023-12-20T05:21:19;5.60;99.90
254;DHT22;590;48.772;8.846;2023-12-20T05:23:47;5.60;99.90
254;DHT22;590;48.772;8.846;2023-12-20T05:26:15;5.60;99.90
254;DHT22;590;48.772;8.846;2023-12-20T05:28:43;5.60;99.90
254;DHT22;590;48.772;8.846;2023-12-20T05:31:12;5.60;99.90
254;DHT22;590;48.772;8.846;2023-12-20T05:33:40;5.60;99.90
254;DHT22;590;48.772;8.846;2023-12-20T05:36:08;5.60;99.90
254;DHT22;590;48.772;8.846;2023-12-20T05:38:38;5.60;99.90
254;DHT22;590;48.772;8.846;2023-12-20T05:41:06;5.60;99.90
254;DHT22;590;48.772;8.846;2023-12-20T05:43:34;5.70;99.90
254;DHT22;590;48.772;8.846;2023-12-20T05:46:02;5.70;99.90
254;DHT22;590;48.772;8.846;2023-12-20T05:48:31;5.70;99.90
254;DHT22;590;48.772;8.846;2023-12-20T05:50:59;5.70;99.90
254;DHT22;590;48.772;8.846;2023-12-20T05:53:27;5.70;99.90
254;DHT22;590;48.772;8.846;2023-12-20T05:55:55;5.70;99.90
254;DHT22;590;48.772;8.846;2023-12-20T05:58:23;5.70;99.90
254;DHT22;590;48.772;8.846;2023-12-20T06:00:51;5.70;99.90
254;DHT22;590;48.772;8.846;2023-12-20T06:03:19;5.70;99.90
254;DHT22;590;48.772;8.846;2023-12-20T06:05:49;5.70;99.90
254;DHT22;590;48.772;8.846;2023-12-20T06:08:19;5.70;99.90
254;DHT22;590;48.772;8.846;2023-12-20T06:10:47;5.70;99.90
254;DHT22;590;48.772;8.846;2023-12-20T06:13:15;5.70;99.90
254;DHT22;590;48.772;8.846;2023-12-20T06:15:44;5.70;99.90
254;DHT22;590;48.772;8.846;2023-12-20T06:18:12;5.70;99.90
254;DHT22;590;48.772;8.846;2023-12-20T06:20:40;5.70;99.90
254;DHT22;590;48.772;8.846;2023-12-20T06:23:09;5.70;99.90
254;DHT22;590;48.772;8.846;2023-12-20T06:25:37;5.70;99.90
254;DHT22;590;48.772;8.846;2023-12-20T06:28:05;5.70;99.90
254;DHT22;590;48.772;8.846;2023-12-20T06:30:34;5.70;99.90
254;DHT22;590;48.772;8.846;2023-12-20T06:33:03;5.70;99.90
254;DHT22;590;48.772;8.846;2023-12-20T06:35:31;5.70;99.90
254;DHT22;590;48.772;8.846;2023-12-20T06:38:03;5.70;99.90
254;DHT22;590;48.772;8.846;2023-12-20T06:40:32;5.70;99.90
254;DHT22;590;48.772;8.846;2023-12-20T06:43:00;5.70;99.90
254;DHT22;590;48.772;8.846;2023-12-20T06:45:42;5.70;99.90
254;DHT22;590;48.772;8.846;2023-12-20T06:48:10;5.70;99.90
254;DHT22;590;48.772;8.846;2023-12-20T06:50:40;5.70;99.90
254;DHT22;590;48.772;8.846;2023-12-20T06:53:08;5.70;99.90
254;DHT22;590;48.772;8.846;2023-12-20T06:55:38;5.70;99.90
254;DHT22;590;48.772;8.846;2023-12-20T06:58:06;5.70;99.90
254;DHT22;590;48.772;8.846;2023-12-20T07:00:34;5.70;99.90
254;DHT22;590;48.772;8.846;2023-12-20T07:03:02;5.70;99.90
254;DHT22;590;48.772;8.846;2023-12-20T07:05:30;5.70;99.90
254;DHT22;590;48.772;8.846;2023-12-20T07:07:59;5.70;99.90
254;DHT22;590;48.772;8.846;2023-12-20T07:10:27;5.70;99.90
254;DHT22;590;48.772;8.846;2023-12-20T07:12:57;5.70;99.90
254;DHT22;590;48.772;8.846;2023-12-20T07:15:25;5.70;99.90
254;DHT22;590;48.772;8.846;2023-12-20T07:17:53;5.70;99.90
254;DHT22;590;48.772;8.846;2023-12-20T07:20:21;5.70;99.90
254;DHT22;590;48.772;8.846;2023-12-20T07:22:49;5.60;99.90
254;DHT22;590;48.772;8.846;2023-12-20T07:25:17;5.60;99.90
254;DHT22;590;48.772;8.846;2023-12-20T07:27:47;5.60;99.90
254;DHT22;590;48.772;8.846;2023-12-20T07:30:17;5.50;99.90
254;DHT22;590;48.772;8.846;2023-12-20T07:32:45;5.50;99.90
254;DHT22;590;48.772;8.846;2023-12-20T07:35:15;5.50;99.90
254;DHT22;590;48.772;8.846;2023-12-20T07:37:43;5.40;99.90
254;DHT22;590;48.772;8.846;2023-12-20T07:40:12;5.40;99.90
254;DHT22;590;48.772;8.846;2023-12-20T07:42:40;5.40;99.90
254;DHT22;590;48.772;8.846;2023-12-20T07:45:08;5.40;99.90
254;DHT22;590;48.772;8.846;2023-12-20T07:47:38;5.40;99.90
254;DHT22;590;48.772;8.846;2023-12-20T07:50:07;5.40;99.90
254;DHT22;590;48.772;8.846;2023-12-20T07:52:37;5.30;99.90
254;DHT22;590;48.772;8.846;2023-12-20T07:55:05;5.40;99.90
254;DHT22;590;48.772;8.846;2023-12-20T07:57:34;5.30;99.90
254;DHT22;590;48.772;8.846;2023-12-20T08:00:02;5.30;99.90
254;DHT22;590;48.772;8.846;2023-12-20T08:02:30;5.40;99.90
254;DHT22;590;48.772;8.846;2023-12-20T08:05:00;5.40;99.90
254;DHT22;590;48.772;8.846;2023-12-20T08:07:28;5.40;99.90
254;DHT22;590;48.772;8.846;2023-12-20T08:09:56;5.40;99.90
254;DHT22;590;48.772;8.846;2023-12-20T08:12:24;5.50;99.90
254;DHT22;590;48.772;8.846;2023-12-20T08:14:54;5.50;99.90
254;DHT22;590;48.772;8.846;2023-12-20T08:17:23;5.50;99.90
254;DHT22;590;48.772;8.846;2023-12-20T08:19:52;5.50;99.90
254;DHT22;590;48.772;8.846;2023-12-20T08:22:21;5.40;99.90
254;DHT22;590;48.772;8.846;2023-12-20T08:24:49;5.40;99.90
254;DHT22;590;48.772;8.846;2023-12-20T08:27:17;5.40;99.90
254;DHT22;590;48.772;8.846;2023-12-20T08:29:45;5.40;99.90
254;DHT22;590;48.772;8.846;2023-12-20T08:32:14;5.40;99.90
254;DHT22;590;48.772;8.846;2023-12-20T08:34:41;5.40;99.90
254;DHT22;590;48.772;8.846;2023-12-20T08:37:10;5.30;99.90
254;DHT22;590;48.772;8.846;2023-12-20T08:39:39;5.30;99.90
254;DHT22;590;48.772;8.846;2023-12-20T08:42:11;5.30;99.90
254;DHT22;590;48.772;8.846;2023-12-20T08:44:39;5.30;99.90
254;DHT22;590;48.772;8.846;2023-12-20T08:47:07;5.30;99.90
254;DHT22;590;48.772;8.846;2023-12-20T08:49:39;5.30;99.90
254;DHT22;590;48.772;8.846;2023-12-20T08:52:08;5.30;99.90
254;DHT22;590;48.772;8.846;2023-12-20T08:54:36;5.40;99.90
254;DHT22;590;48.772;8.846;2023-12-20T08:57:05;5.40;99.90
254;DHT22;590;48.772;8.846;2023-12-20T08:59:33;5.40;99.90
254;DHT22;590;48.772;8.846;2023-12-20T09:02:01;5.50;99.90
254;DHT22;590;48.772;8.846;2023-12-20T09:04:29;5.50;99.90
254;DHT22;590;48.772;8.846;2023-12-20T09:07:00;5.60;99.90
254;DHT22;590;48.772;8.846;2023-12-20T09:09:28;5.60;99.90
254;DHT22;590;48.772;8.846;2023-12-20T09:11:58;5.70;99.90
254;DHT22;590;48.772;8.846;2023-12-20T09:14:28;5.70;99.90
254;DHT22;590;48.772;8.846;2023-12-20T09:16:57;5.80;99.90
254;DHT22;590;48.772;8.846;2023-12-20T09:19:25;5.80;99.90
254;DHT22;590;48.772;8.846;2023-12-20T09:21:53;5.90;99.90
254;DHT22;590;48.772;8.846;2023-12-20T09:24:21;5.90;99.90
254;DHT22;590;48.772;8.846;2023-12-20T09:26:49;5.90;99.90
254;DHT22;590;48.772;8.846;2023-12-20T09:29:17;6.00;99.90
254;DHT22;590;48.772;8.846;2023-12-20T09:31:47;6.00;99.90
254;DHT22;590;48.772;8.846;2023-12-20T09:34:15;6.10;99.90
254;DHT22;590;48.772;8.846;2023-12-20T09:36:44;6.10;99.90
254;DHT22;590;48.772;8.846;2023-12-20T09:39:13;6.10;99.90
254;DHT22;590;48.772;8.846;2023-12-20T09:41:44;6.10;99.90
254;DHT22;590;48.772;8.846;2023-12-20T09:44:15;6.20;99.90
254;DHT22;590;48.772;8.846;2023-12-20T09:46:49;6.20;99.90
254;DHT22;590;48.772;8.846;2023-12-20T09:49:17;6.20;99.90
254;DHT22;590;48.772;8.846;2023-12-20T09:51:46;6.40;99.90
254;DHT22;590;48.772;8.846;2023-12-20T09:54:16;6.50;99.90
254;DHT22;590;48.772;8.846;2023-12-20T09:56:44;6.70;99.90
254;DHT22;590;48.772;8.846;2023-12-20T09:59:13;6.80;99.90
254;DHT22;590;48.772;8.846;2023-12-20T10:01:42;6.90;99.90
254;DHT22;590;48.772;8.846;2023-12-20T10:04:12;6.90;99.90
254;DHT22;590;48.772;8.846;2023-12-20T10:06:55;6.90;99.90
254;DHT22;590;48.772;8.846;2023-12-20T10:09:25;6.90;99.90
254;DHT22;590;48.772;8.846;2023-12-20T10:11:54;6.80;99.90
254;DHT22;590;48.772;8.846;2023-12-20T10:14:24;6.70;99.90
254;DHT22;590;48.772;8.846;2023-12-20T10:16:52;6.70;99.90
254;DHT22;590;48.772;8.846;2023-12-20T10:19:22;6.70;99.90
254;DHT22;590;48.772;8.846;2023-12-20T10:21:51;6.60;99.90
254;DHT22;590;48.772;8.846;2023-12-20T10:24:19;6.60;99.90
254;DHT22;590;48.772;8.846;2023-12-20T10:27:01;6.60;99.90
254;DHT22;590;48.772;8.846;2023-12-20T10:29:32;6.60;99.90
254;DHT22;590;48.772;8.846;2023-12-20T10:32:23;6.60;99.90
254;DHT22;590;48.772;8.846;2023-12-20T10:34:54;6.60;99.90
254;DHT22;590;48.772;8.846;2023-12-20T10:37:23;6.60;99.90
254;DHT22;590;48.772;8.846;2023-12-20T10:39:53;6.60;99.90
254;DHT22;590;48.772;8.846;2023-12-20T10:42:26;6.60;99.90
254;DHT22;590;48.772;8.846;2023-12-20T10:45:07;6.60;99.90
254;DHT22;590;48.772;8.846;2023-12-20T10:47:36;6.50;99.90
254;DHT22;590;48.772;8.846;2023-12-20T10:50:08;6.60;99.90
254;DHT22;590;48.772;8.846;2023-12-20T10:52:37;6.60;99.90
254;DHT22;590;48.772;8.846;2023-12-20T10:55:07;6.60;99.90
254;DHT22;590;48.772;8.846;2023-12-20T10:57:36;6.60;99.90
254;DHT22;590;48.772;8.846;2023-12-20T11:00:06;6.60;99.90
254;DHT22;590;48.772;8.846;2023-12-20T11:02:39;6.70;99.90
254;DHT22;590;48.772;8.846;2023-12-20T11:05:22;6.70;99.90
254;DHT22;590;48.772;8.846;2023-12-20T11:07:55;6.70;99.90
254;DHT22;590;48.772;8.846;2023-12-20T11:10:30;6.70;99.90
254;DHT22;590;48.772;8.846;2023-12-20T11:13:06;6.70;98.50
254;DHT22;590;48.772;8.846;2023-12-20T11:15:39;6.60;97.60
254;DHT22;590;48.772;8.846;2023-12-20T11:18:09;6.60;97.60
254;DHT22;590;48.772;8.846;2023-12-20T11:20:39;6.60;97.60
254;DHT22;590;48.772;8.846;2023-12-20T11:23:09;6.60;97.50
254;DHT22;590;48.772;8.846;2023-12-20T11:25:47;6.50;97.40
254;DHT22;590;48.772;8.846;2023-12-20T11:28:21;6.50;97.40
254;DHT22;590;48.772;8.846;2023-12-20T11:30:51;6.50;97.30
254;DHT22;590;48.772;8.846;2023-12-20T11:33:23;6.50;97.50
254;DHT22;590;48.772;8.846;2023-12-20T11:35:58;6.50;97.70
254;DHT22;590;48.772;8.846;2023-12-20T11:38:27;6.50;97.60
254;DHT22;590;48.772;8.846;2023-12-20T11:40:55;6.40;97.90
254;DHT22;590;48.772;8.846;2023-12-20T11:43:31;6.40;97.30
254;DHT22;590;48.772;8.846;2023-12-20T11:46:03;6.40;97.00
254;DHT22;590;48.772;8.846;2023-12-20T11:48:35;6.40;96.70
254;DHT22;590;48.772;8.846;2023-12-20T11:51:09;6.40;96.90
254;DHT22;590;48.772;8.846;2023-12-20T11:53:37;6.50;97.00
254;DHT22;590;48.772;8.846;2023-12-20T11:56:06;6.60;97.50
254;DHT22;590;48.772;8.846;2023-12-20T11:58:34;6.60;97.60
254;DHT22;590;48.772;8.846;2023-12-20T12:01:03;6.70;97.30
254;DHT22;590;48.772;8.846;2023-12-20T12:03:35;6.80;97.40
254;DHT22;590;48.772;8.846;2023-12-20T12:06:05;6.90;96.30
254;DHT22;590;48.772;8.846;2023-12-20T12:08:35;7.00;95.60
254;DHT22;590;48.772;8.846;2023-12-20T12:11:03;7.00;94.30
254;DHT22;590;48.772;8.846;2023-12-20T12:13:32;7.10;94.10
254;DHT22;590;48.772;8.846;2023-12-20T12:16:00;7.10;94.10
254;DHT22;590;48.772;8.846;2023-12-20T12:18:28;7.10;93.30
254;DHT22;590;48.772;8.846;2023-12-20T12:21:00;7.20;92.30
254;DHT22;590;48.772;8.846;2023-12-20T12:23:33;7.20;91.60
254;DHT22;590;48.772;8.846;2023-12-20T12:26:03;7.10;90.60
254;DHT22;590;48.772;8.846;2023-12-20T12:28:34;7.10;90.90
254;DHT22;590;48.772;8.846;2023-12-20T12:31:02;7.10;91.00
254;DHT22;590;48.772;8.846;2023-12-20T12:33:31;7.20;91.00
254;DHT22;590;48.772;8.846;2023-12-20T12:35:59;7.10;91.10
254;DHT22;590;48.772;8.846;2023-12-20T12:38:28;7.10;91.20
254;DHT22;590;48.772;8.846;2023-12-20T12:40:57;7.10;91.40
254;DHT22;590;48.772;8.846;2023-12-20T12:43:25;7.20;91.20
254;DHT22;590;48.772;8.846;2023-12-20T12:45:53;7.10;91.20
254;DHT22;590;48.772;8.846;2023-12-20T12:48:22;7.20;91.10
254;DHT22;590;48.772;8.846;2023-12-20T12:50:50;7.20;91.20
254;DHT22;590;48.772;8.846;2023-12-20T12:53:20;7.20;91.40
254;DHT22;590;48.772;8.846;2023-12-20T12:55:48;7.20;91.50
254;DHT22;590;48.772;8.846;2023-12-20T12:58:17;7.30;91.60
254;DHT22;590;48.772;8.846;2023-12-20T13:00:45;7.30;91.60
254;DHT22;590;48.772;8.846;2023-12-20T13:03:13;7.30;91.50
254;DHT22;590;48.772;8.846;2023-12-20T13:05:42;7.30;91.30
254;DHT22;590;48.772;8.846;2023-12-20T13:08:13;7.30;90.80
254;DHT22;590;48.772;8.846;2023-12-20T13:10:41;7.20;90.70
254;DHT22;590;48.772;8.846;2023-12-20T13:13:09;7.20;90.50
254;DHT22;590;48.772;8.846;2023-12-20T13:15:38;7.10;90.40
254;DHT22;590;48.772;8.846;2023-12-20T13:18:07;7.00;90.20
254;DHT22;590;48.772;8.846;2023-12-20T13:20:35;7.00;90.40
254;DHT22;590;48.772;8.846;2023-12-20T13:23:03;7.00;90.40
254;DHT22;590;48.772;8.846;2023-12-20T13:25:31;6.90;90.30
254;DHT22;590;48.772;8.846;2023-12-20T13:28:00;6.90;90.40
254;DHT22;590;48.772;8.846;2023-12-20T13:30:29;7.00;90.60
254;DHT22;590;48.772;8.846;2023-12-20T13:32:58;7.00;90.60
254;DHT22;590;48.772;8.846;2023-12-20T13:35:27;7.00;90.40
254;DHT22;590;48.772;8.846;2023-12-20T13:37:55;7.00;90.70
254;DHT22;590;48.772;8.846;2023-12-20T13:40:23;6.90;90.70
254;DHT22;590;48.772;8.846;2023-12-20T13:42:51;6.90;90.10
254;DHT22;590;48.772;8.846;2023-12-20T13:45:21;6.80;90.00
254;DHT22;590;48.772;8.846;2023-12-20T13:47:50;6.80;90.80
254;DHT22;590;48.772;8.846;2023-12-20T13:50:19;6.70;90.90
254;DHT22;590;48.772;8.846;2023-12-20T13:52:47;6.70;91.40
254;DHT22;590;48.772;8.846;2023-12-20T13:55:15;6.60;91.60
254;DHT22;590;48.772;8.846;2023-12-20T13:57:43;6.60;91.70
254;DHT22;590;48.772;8.846;2023-12-20T14:00:21;6.60;91.70
254;DHT22;590;48.772;8.846;2023-12-20T14:02:49;6.50;91.90
254;DHT22;590;48.772;8.846;2023-12-20T14:05:19;6.50;92.10
254;DHT22;590;48.772;8.846;2023-12-20T14:07:51;6.50;92.30
254;DHT22;590;48.772;8.846;2023-12-20T14:10:20;6.50;92.40
254;DHT22;590;48.772;8.846;2023-12-20T14:12:48;6.40;92.70
254;DHT22;590;48.772;8.846;2023-12-20T14:15:16;6.40;93.20
254;DHT22;590;48.772;8.846;2023-12-20T14:17:44;6.30;93.20
254;DHT22;590;48.772;8.846;2023-12-20T14:20:13;6.30;93.70
254;DHT22;590;48.772;8.846;2023-12-20T14:22:42;6.30;93.90
254;DHT22;590;48.772;8.846;2023-12-20T14:25:12;6.30;94.70
254;DHT22;590;48.772;8.846;2023-12-20T14:27:41;6.30;95.20
254;DHT22;590;48.772;8.846;2023-12-20T14:30:12;6.30;95.70
254;DHT22;590;48.772;8.846;2023-12-20T14:32:42;6.30;95.80
254;DHT22;590;48.772;8.846;2023-12-20T14:35:10;6.30;95.90
254;DHT22;590;48.772;8.846;2023-12-20T14:37:39;6.20;96.20
254;DHT22;590;48.772;8.846;2023-12-20T14:40:10;6.20;96.60
254;DHT22;590;48.772;8.846;2023-12-20T14:42:43;6.20;97.20
254;DHT22;590;48.772;8.846;2023-12-20T14:45:12;6.20;97.30
254;DHT22;590;48.772;8.846;2023-12-20T14:47:40;6.20;97.40
254;DHT22;590;48.772;8.846;2023-12-20T14:50:09;6.10;97.20
254;DHT22;590;48.772;8.846;2023-12-20T14:52:38;6.10;97.20
254;DHT22;590;48.772;8.846;2023-12-20T14:55:08;6.10;97.20
254;DHT22;590;48.772;8.846;2023-12-20T14:57:36;6.10;97.20
254;DHT22;590;48.772;8.846;2023-12-20T15:00:06;6.10;97.20
254;DHT22;590;48.772;8.846;2023-12-20T15:02:35;6.00;97.40
254;DHT22;590;48.772;8.846;2023-12-20T15:05:03;6.00;97.70
254;DHT22;590;48.772;8.846;2023-12-20T15:07:31;6.00;98.00
254;DHT22;590;48.772;8.846;2023-12-20T15:09:59;6.00;98.40
254;DHT22;590;48.772;8.846;2023-12-20T15:12:29;6.00;98.60
254;DHT22;590;48.772;8.846;2023-12-20T15:14:57;6.10;98.80
254;DHT22;590;48.772;8.846;2023-12-20T15:17:25;6.00;98.80
254;DHT22;590;48.772;8.846;2023-12-20T15:19:53;6.00;99.20
254;DHT22;590;48.772;8.846;2023-12-20T15:22:22;6.00;99.50
254;DHT22;590;48.772;8.846;2023-12-20T15:24:53;6.00;99.40
254;DHT22;590;48.772;8.846;2023-12-20T15:27:21;6.00;99.30
254;DHT22;590;48.772;8.846;2023-12-20T15:29:52;6.00;99.10
254;DHT22;590;48.772;8.846;2023-12-20T15:32:21;5.90;99.20
254;DHT22;590;48.772;8.846;2023-12-20T15:34:49;5.90;99.60
254;DHT22;590;48.772;8.846;2023-12-20T15:37:19;5.80;99.90
254;DHT22;590;48.772;8.846;2023-12-20T15:39:47;5.80;99.90
254;DHT22;590;48.772;8.846;2023-12-20T15:42:15;5.80;99.90
254;DHT22;590;48.772;8.846;2023-12-20T15:44:43;5.80;99.90
254;DHT22;590;48.772;8.846;2023-12-20T15:47:13;5.70;99.90
254;DHT22;590;48.772;8.846;2023-12-20T15:49:41;5.70;99.90
254;DHT22;590;48.772;8.846;2023-12-20T15:52:09;5.70;99.90
254;DHT22;590;48.772;8.846;2023-12-20T15:54:37;5.70;99.90
254;DHT22;590;48.772;8.846;2023-12-20T15:57:06;5.60;99.90
254;DHT22;590;48.772;8.846;2023-12-20T15:59:34;5.60;99.90
254;DHT22;590;48.772;8.846;2023-12-20T16:02:02;5.60;99.90
254;DHT22;590;48.772;8.846;2023-12-20T16:04:32;5.60;99.90
254;DHT22;590;48.772;8.846;2023-12-20T16:07:00;5.60;99.90
254;DHT22;590;48.772;8.846;2023-12-20T16:09:29;5.60;99.90
254;DHT22;590;48.772;8.846;2023-12-20T16:11:57;5.60;99.90
254;DHT22;590;48.772;8.846;2023-12-20T16:14:25;5.60;99.90
254;DHT22;590;48.772;8.846;2023-12-20T16:16:56;5.50;99.90
254;DHT22;590;48.772;8.846;2023-12-20T16:19:26;5.50;99.90
254;DHT22;590;48.772;8.846;2023-12-20T16:21:55;5.50;99.90
254;DHT22;590;48.772;8.846;2023-12-20T16:24:23;5.50;99.90
254;DHT22;590;48.772;8.846;2023-12-20T16:26:51;5.50;99.90
254;DHT22;590;48.772;8.846;2023-12-20T16:29:19;5.50;99.90
254;DHT22;590;48.772;8.846;2023-12-20T16:31:47;5.50;99.90
254;DHT22;590;48.772;8.846;2023-12-20T16:34:16;5.50;99.90
254;DHT22;590;48.772;8.846;2023-12-20T16:36:51;5.50;99.90
254;DHT22;590;48.772;8.846;2023-12-20T16:39:21;5.50;99.90
254;DHT22;590;48.772;8.846;2023-12-20T16:41:50;5.50;99.90
254;DHT22;590;48.772;8.846;2023-12-20T16:44:18;5.50;99.90
254;DHT22;590;48.772;8.846;2023-12-20T16:46:46;5.50;99.90
254;DHT22;590;48.772;8.846;2023-12-20T16:49:14;5.50;99.90
254;DHT22;590;48.772;8.846;2023-12-20T16:51:43;5.50;99.90
254;DHT22;590;48.772;8.846;2023-12-20T16:54:11;5.50;99.90
254;DHT22;590;48.772;8.846;2023-12-20T16:56:40;5.50;99.90
254;DHT22;590;48.772;8.846;2023-12-20T16:59:08;5.40;99.90
254;DHT22;590;48.772;8.846;2023-12-20T17:01:36;5.40;99.90
254;DHT22;590;48.772;8.846;2023-12-20T17:04:05;5.40;99.90